createdAt,value
2016-05-26T00:00:12.199Z,13.33
2016-05-26T00:01:12.248Z,13.3
2016-05-26T00:02:12.204Z,13.35
2016-05-26T00:03:12.237Z,13.35
2016-05-26T00:04:12.210Z,13.37
2016-05-26T00:05:12.197Z,13.31
2016-05-26T00:06:12.200Z,13.28
2016-05-26T00:07:12.045Z,13.3
2016-05-26T00:08:12.205Z,13.3
2016-05-26T00:09:12.208Z,13.3
2016-05-26T00:10:12.053Z,13.23
2016-05-26T00:11:12.197Z,13.3
2016-05-26T00:12:12.199Z,13.16
2016-05-26T00:13:12.249Z,13.2
2016-05-26T00:14:12.206Z,13.13
2016-05-26T00:15:12.239Z,13.15
2016-05-26T00:16:12.320Z,13.25
2016-05-26T00:17:12.213Z,13.23
2016-05-26T00:18:12.200Z,13.09
2016-05-26T00:19:12.219Z,13.11
2016-05-26T00:20:12.206Z,13.11
2016-05-26T00:21:12.208Z,13.12
2016-05-26T00:22:12.227Z,13.05
2016-05-26T00:23:12.214Z,13.11
2016-05-26T00:24:12.216Z,13.03
2016-05-26T00:25:12.235Z,13.04
2016-05-26T00:26:12.096Z,13.04
2016-05-26T00:27:12.209Z,12.98
2016-05-26T00:28:12.212Z,13.01
2016-05-26T00:29:12.214Z,13
2016-05-26T00:30:12.217Z,13.03
2016-05-26T00:31:12.220Z,13
2016-05-26T00:32:12.222Z,13
2016-05-26T00:33:12.662Z,13.03
2016-05-26T00:34:12.228Z,13.03
2016-05-26T00:35:12.059Z,13.03
2016-05-26T00:36:12.218Z,13
2016-05-26T00:37:12.221Z,12.94
2016-05-26T00:38:12.223Z,12.97
2016-05-26T00:39:12.226Z,12.94
2016-05-26T00:40:12.228Z,12.97
2016-05-26T00:41:12.059Z,12.82
2016-05-26T00:42:12.234Z,12.91
2016-05-26T00:43:12.220Z,12.85
2016-05-26T00:44:12.239Z,12.91
2016-05-26T00:45:12.241Z,12.94
2016-05-26T00:46:12.244Z,12.83
2016-05-26T00:47:12.216Z,12.83
2016-05-26T00:48:12.234Z,12.83
2016-05-26T00:49:12.440Z,12.8
2016-05-26T00:50:12.224Z,12.78
2016-05-26T00:51:12.227Z,12.78
2016-05-26T00:52:12.229Z,12.78
2016-05-26T00:53:12.216Z,12.82
2016-05-26T00:54:12.235Z,12.75
2016-05-26T00:55:12.221Z,12.78
2016-05-26T00:56:12.224Z,12.75
2016-05-26T00:57:12.243Z,12.78
2016-05-26T00:58:12.230Z,12.7
2016-05-26T00:59:12.232Z,12.62
2016-05-26T01:00:12.220Z,12.68
2016-05-26T01:01:12.238Z,12.7
2016-05-26T01:02:12.256Z,12.68
2016-05-26T01:03:12.087Z,12.7
2016-05-26T01:04:12.246Z,12.72
2016-05-26T01:05:12.234Z,12.65
2016-05-26T01:06:12.236Z,12.6
2016-05-26T01:07:12.223Z,12.72
2016-05-26T01:08:12.241Z,12.75
2016-05-26T01:09:12.087Z,12.62
2016-05-26T01:10:12.075Z,12.67
2016-05-26T01:11:12.233Z,12.65
2016-05-26T01:12:12.237Z,12.64
2016-05-26T01:13:12.239Z,12.65
2016-05-26T01:14:12.069Z,12.55
2016-05-26T01:15:12.228Z,12.5
2016-05-26T01:16:12.231Z,12.46
2016-05-26T01:17:12.234Z,12.5
2016-05-26T01:18:12.518Z,12.49
2016-05-26T01:19:12.239Z,12.47
2016-05-26T01:20:12.227Z,12.55
2016-05-26T01:21:12.230Z,12.54
2016-05-26T01:22:12.232Z,12.45
2016-05-26T01:23:12.249Z,12.42
2016-05-26T01:24:12.253Z,12.4
2016-05-26T01:25:12.240Z,12.4
2016-05-26T01:26:12.227Z,12.43
2016-05-26T01:27:12.245Z,12.35
2016-05-26T01:28:12.248Z,12.27
2016-05-26T01:29:12.235Z,12.22
2016-05-26T01:30:12.237Z,12.36
2016-05-26T01:31:12.241Z,12.36
2016-05-26T01:32:12.227Z,12.43
2016-05-26T01:33:12.699Z,12.29
2016-05-26T01:34:12.076Z,12.31
2016-05-26T01:35:12.235Z,12.29
2016-05-26T01:36:12.238Z,12.27
2016-05-26T01:37:12.241Z,12.32
2016-05-26T01:38:12.260Z,12.2
2016-05-26T01:39:12.246Z,12.24
2016-05-26T01:40:12.234Z,12.21
2016-05-26T01:41:12.111Z,12.22
2016-05-26T01:42:12.239Z,12.22
2016-05-26T01:43:12.226Z,12.28
2016-05-26T01:44:12.244Z,12.2
2016-05-26T01:45:12.247Z,12.22
2016-05-26T01:46:12.233Z,12.13
2016-05-26T01:47:12.236Z,12.18
2016-05-26T01:48:12.505Z,12.15
2016-05-26T01:49:12.085Z,12.17
2016-05-26T01:50:12.244Z,12.21
2016-05-26T01:51:12.263Z,12.12
2016-05-26T01:52:12.078Z,12.1
2016-05-26T01:53:12.253Z,12.06
2016-05-26T01:54:12.240Z,12.12
2016-05-26T01:55:12.227Z,12.13
2016-05-26T01:56:12.230Z,12.02
2016-05-26T01:57:12.249Z,12.04
2016-05-26T01:58:12.079Z,12.12
2016-05-26T01:59:12.238Z,12.17
2016-05-26T02:00:12.240Z,12.03
2016-05-26T02:01:12.259Z,12.15
2016-05-26T02:02:12.246Z,12.07
2016-05-26T02:03:12.248Z,12.07
2016-05-26T02:04:12.235Z,12.04
2016-05-26T02:05:12.237Z,12.12
2016-05-26T02:06:12.241Z,12.07
2016-05-26T02:07:12.243Z,12.07
2016-05-26T02:08:12.246Z,12.06
2016-05-26T02:09:12.248Z,12.02
2016-05-26T02:10:12.079Z,11.99
2016-05-26T02:11:12.239Z,12
2016-05-26T02:12:12.241Z,12
2016-05-26T02:13:12.229Z,12
2016-05-26T02:14:12.231Z,11.87
2016-05-26T02:15:12.233Z,11.94
2016-05-26T02:16:12.236Z,11.95
2016-05-26T02:17:12.255Z,11.91
2016-05-26T02:18:12.336Z,11.91
2016-05-26T02:19:12.245Z,11.95
2016-05-26T02:20:12.263Z,11.88
2016-05-26T02:21:12.250Z,11.88
2016-05-26T02:22:12.253Z,11.9
2016-05-26T02:23:12.224Z,11.84
2016-05-26T02:24:12.086Z,11.95
2016-05-26T02:25:12.073Z,11.94
2016-05-26T02:26:12.232Z,11.84
2016-05-26T02:27:12.235Z,11.94
2016-05-26T02:28:12.221Z,11.84
2016-05-26T02:29:12.240Z,11.95
2016-05-26T02:30:12.227Z,11.94
2016-05-26T02:31:12.229Z,11.95
2016-05-26T02:32:12.232Z,11.84
2016-05-26T02:33:12.345Z,11.84
2016-05-26T02:34:12.082Z,11.88
2016-05-26T02:35:12.241Z,11.94
2016-05-26T02:36:12.228Z,11.94
2016-05-26T02:37:12.262Z,11.95
2016-05-26T02:38:12.109Z,11.94
2016-05-26T02:39:12.236Z,11.83
2016-05-26T02:40:12.082Z,11.91
2016-05-26T02:41:12.085Z,11.88
2016-05-26T02:42:12.087Z,11.91
2016-05-26T02:43:12.075Z,11.91
2016-05-26T02:44:12.234Z,11.87
2016-05-26T02:45:12.236Z,11.9
2016-05-26T02:46:12.286Z,11.87
2016-05-26T02:47:12.069Z,11.81
2016-05-26T02:48:12.119Z,11.83
2016-05-26T02:49:12.278Z,11.81
2016-05-26T02:50:12.265Z,11.83
2016-05-26T02:51:12.018Z,11.83
2016-05-26T02:52:12.224Z,11.84
2016-05-26T02:53:12.227Z,11.78
2016-05-26T02:54:12.277Z,11.77
2016-05-26T02:55:12.358Z,11.84
2016-05-26T02:56:12.218Z,11.81
2016-05-26T02:57:12.066Z,11.8
2016-05-26T02:58:12.069Z,11.78
2016-05-26T02:59:12.227Z,11.7
2016-05-26T03:00:12.230Z,11.77
2016-05-26T03:01:12.107Z,11.73
2016-05-26T03:02:12.235Z,11.7
2016-05-26T03:03:12.160Z,11.73
2016-05-26T03:04:12.240Z,11.72
2016-05-26T03:05:12.227Z,11.66
2016-05-26T03:06:12.246Z,11.65
2016-05-26T03:07:12.061Z,11.66
2016-05-26T03:08:12.221Z,11.55
2016-05-26T03:09:12.238Z,11.65
2016-05-26T03:10:12.069Z,11.57
2016-05-26T03:11:12.212Z,11.6
2016-05-26T03:12:12.215Z,11.59
2016-05-26T03:13:12.218Z,11.48
2016-05-26T03:14:12.065Z,11.54
2016-05-26T03:15:12.223Z,11.55
2016-05-26T03:16:12.242Z,11.51
2016-05-26T03:17:12.229Z,11.52
2016-05-26T03:18:12.247Z,11.55
2016-05-26T03:19:12.062Z,11.45
2016-05-26T03:20:12.221Z,11.47
2016-05-26T03:21:12.208Z,11.47
2016-05-26T03:22:12.227Z,11.47
2016-05-26T03:23:12.088Z,11.44
2016-05-26T03:24:12.216Z,11.48
2016-05-26T03:25:12.235Z,11.44
2016-05-26T03:26:11.924Z,11.47
2016-05-26T03:27:12.208Z,11.54
2016-05-26T03:28:12.243Z,11.47
2016-05-26T03:29:12.074Z,11.5
2016-05-26T03:30:12.216Z,11.45
2016-05-26T03:31:12.063Z,11.54
2016-05-26T03:32:12.222Z,11.54
2016-05-26T03:33:12.225Z,11.54
2016-05-26T03:34:12.227Z,11.57
2016-05-26T03:35:12.214Z,11.51
2016-05-26T03:36:12.077Z,11.59
2016-05-26T03:37:12.220Z,11.57
2016-05-26T03:38:12.066Z,11.57
2016-05-26T03:39:12.209Z,11.59
2016-05-26T03:40:12.212Z,11.62
2016-05-26T03:41:12.121Z,11.63
2016-05-26T03:42:12.201Z,11.65
2016-05-26T03:43:12.220Z,11.7
2016-05-26T03:44:12.207Z,11.75
2016-05-26T03:45:12.069Z,11.7
2016-05-26T03:46:12.244Z,11.73
2016-05-26T03:47:12.215Z,11.69
2016-05-26T03:48:13.547Z,11.69
2016-05-26T03:49:12.081Z,11.8
2016-05-26T03:50:12.208Z,11.72
2016-05-26T03:51:12.226Z,11.78
2016-05-26T03:52:12.213Z,11.77
2016-05-26T03:53:12.216Z,11.75
2016-05-26T03:54:12.219Z,11.75
2016-05-26T03:55:12.050Z,11.75
2016-05-26T03:56:12.224Z,11.75
2016-05-26T03:57:12.211Z,11.68
2016-05-26T03:58:12.057Z,11.73
2016-05-26T03:59:12.216Z,11.69
2016-05-26T04:00:12.219Z,11.69
2016-05-26T04:01:12.238Z,11.66
2016-05-26T04:02:12.224Z,11.78
2016-05-26T04:03:12.727Z,11.95
2016-05-26T04:04:12.199Z,12.04
2016-05-26T04:05:11.889Z,12.18
2016-05-26T04:06:12.204Z,12.28
2016-05-26T04:07:12.223Z,12.35
2016-05-26T04:08:12.226Z,12.47
2016-05-26T04:09:12.228Z,12.6
2016-05-26T04:10:12.199Z,12.67
2016-05-26T04:11:12.217Z,12.76
2016-05-26T04:12:12.204Z,12.8
2016-05-26T04:13:12.192Z,12.94
2016-05-26T04:14:12.210Z,13.01
2016-05-26T04:15:12.197Z,13.12
2016-05-26T04:16:12.231Z,13.23
2016-05-26T04:17:12.202Z,13.31
2016-05-26T04:18:12.049Z,13.41
2016-05-26T04:19:12.224Z,13.47
2016-05-26T04:20:12.225Z,13.59
2016-05-26T04:21:12.213Z,13.7
2016-05-26T04:22:12.216Z,13.79
2016-05-26T04:23:12.203Z,13.87
2016-05-26T04:24:12.206Z,13.96
2016-05-26T04:25:12.052Z,14.08
2016-05-26T04:26:12.242Z,14.15
2016-05-26T04:27:12.214Z,14.25
2016-05-26T04:28:12.232Z,14.41
2016-05-26T04:29:12.063Z,14.47
2016-05-26T04:30:12.066Z,14.58
2016-05-26T04:31:12.068Z,14.6
2016-05-26T04:32:11.915Z,14.77
2016-05-26T04:33:13.574Z,14.77
2016-05-26T04:34:12.248Z,14.79
2016-05-26T04:35:12.251Z,14.72
2016-05-26T04:36:12.237Z,14.72
2016-05-26T04:37:12.085Z,14.77
2016-05-26T04:38:12.244Z,14.86
2016-05-26T04:39:12.090Z,14.81
2016-05-26T04:40:12.249Z,15
2016-05-26T04:41:12.110Z,14.97
2016-05-26T04:42:12.254Z,15
2016-05-26T04:43:12.241Z,14.97
2016-05-26T04:44:12.118Z,14.96
2016-05-26T04:45:12.278Z,14.91
2016-05-26T04:46:12.296Z,14.78
2016-05-26T04:47:12.267Z,14.72
2016-05-26T04:48:12.676Z,14.68
2016-05-26T04:49:12.257Z,14.58
2016-05-26T04:50:12.119Z,14.55
2016-05-26T04:51:12.294Z,14.53
2016-05-26T04:52:12.281Z,14.41
2016-05-26T04:53:12.268Z,14.33
2016-05-26T04:54:12.271Z,14.3
2016-05-26T04:55:12.132Z,14.37
2016-05-26T04:56:12.308Z,14.48
2016-05-26T04:57:12.311Z,14.62
2016-05-26T04:58:12.141Z,14.65
2016-05-26T04:59:12.316Z,14.84
2016-05-26T05:00:12.318Z,15
2016-05-26T05:01:12.305Z,15.02
2016-05-26T05:02:12.308Z,15.18
2016-05-26T05:03:12.154Z,15.22
2016-05-26T05:04:12.313Z,15.22
2016-05-26T05:05:12.003Z,15.25
2016-05-26T05:06:12.302Z,15.36
2016-05-26T05:07:12.306Z,15.39
2016-05-26T05:08:12.324Z,15.39
2016-05-26T05:09:12.310Z,15.36
2016-05-26T05:10:12.173Z,15.28
2016-05-26T05:11:12.332Z,15.21
2016-05-26T05:12:12.335Z,15.14
2016-05-26T05:13:12.338Z,15.03
2016-05-26T05:14:12.324Z,15.06
2016-05-26T05:15:12.343Z,14.96
2016-05-26T05:16:12.330Z,14.88
2016-05-26T05:17:12.348Z,14.97
2016-05-26T05:18:13.131Z,14.85
2016-05-26T05:19:12.353Z,14.79
2016-05-26T05:20:12.340Z,14.7
2016-05-26T05:21:12.343Z,14.79
2016-05-26T05:22:12.345Z,14.68
2016-05-26T05:23:12.365Z,15.02
2016-05-26T05:24:12.351Z,15.35
2016-05-26T05:25:12.385Z,15.72
2016-05-26T05:26:12.231Z,16.05
2016-05-26T05:27:12.375Z,16.39
2016-05-26T05:28:12.378Z,16.78
2016-05-26T05:29:12.365Z,17.04
2016-05-26T05:30:12.383Z,17.26
2016-05-26T05:31:12.402Z,17.52
2016-05-26T05:32:12.373Z,17.74
2016-05-26T05:33:12.829Z,17.89
2016-05-26T05:34:12.394Z,18.13
2016-05-26T05:35:12.397Z,18.25
2016-05-26T05:36:12.399Z,18.31
2016-05-26T05:37:12.261Z,18.44
2016-05-26T05:38:12.404Z,18.65
2016-05-26T05:39:12.407Z,18.78
2016-05-26T05:40:12.426Z,18.92
2016-05-26T05:41:12.319Z,19.07
2016-05-26T05:42:12.431Z,19.14
2016-05-26T05:43:12.293Z,19.19
2016-05-26T05:44:12.436Z,19.34
2016-05-26T05:45:12.454Z,19.54
2016-05-26T05:46:12.457Z,19.71
2016-05-26T05:47:12.460Z,19.92
2016-05-26T05:48:12.573Z,19.95
2016-05-26T05:49:12.465Z,20.03
2016-05-26T05:50:12.468Z,20.18
2016-05-26T05:51:12.503Z,20.28
2016-05-26T05:52:12.489Z,20.18
2016-05-26T05:53:12.335Z,19.94
2016-05-26T05:54:12.510Z,19.81
2016-05-26T05:55:12.513Z,19.47
2016-05-26T05:56:12.562Z,19.27
2016-05-26T05:57:12.518Z,19.02
2016-05-26T05:58:12.380Z,18.83
2016-05-26T05:59:12.555Z,18.83
2016-05-26T06:00:12.401Z,18.95
2016-05-26T06:01:12.592Z,19.18
2016-05-26T06:02:12.547Z,19.29
2016-05-26T06:03:13.019Z,19.4
2016-05-26T06:04:12.553Z,19.74
2016-05-26T06:05:12.571Z,20.06
2016-05-26T06:06:12.574Z,20.31
2016-05-26T06:07:12.420Z,20.59
2016-05-26T06:08:12.594Z,20.65
2016-05-26T06:09:12.597Z,20.75
2016-05-26T06:10:12.460Z,20.67
2016-05-26T06:11:12.634Z,20.9
2016-05-26T06:12:12.465Z,21.07
2016-05-26T06:13:12.624Z,21.25
2016-05-26T06:14:12.470Z,21.25
2016-05-26T06:15:12.645Z,21.5
2016-05-26T06:16:12.678Z,21.51
2016-05-26T06:17:12.697Z,21.75
2016-05-26T06:18:13.451Z,21.93
2016-05-26T06:19:12.671Z,22.06
2016-05-26T06:20:12.706Z,22.25
2016-05-26T06:21:12.692Z,22.29
2016-05-26T06:22:12.382Z,22.3
2016-05-26T06:23:12.698Z,22.23
2016-05-26T06:24:12.700Z,22.33
2016-05-26T06:25:12.703Z,22.36
2016-05-26T06:26:12.722Z,22.17
2016-05-26T06:27:12.739Z,22.26
2016-05-26T06:28:12.727Z,22.32
2016-05-26T06:29:12.745Z,22.38
2016-05-26T06:30:12.747Z,22.48
2016-05-26T06:31:12.750Z,22.66
2016-05-26T06:32:12.613Z,22.84
2016-05-26T06:33:12.474Z,22.78
2016-05-26T06:34:12.774Z,22.98
2016-05-26T06:35:12.807Z,23
2016-05-26T06:36:12.794Z,22.99
2016-05-26T06:37:12.814Z,22.99
2016-05-26T06:38:12.832Z,23.12
2016-05-26T06:39:12.663Z,23.12
2016-05-26T06:40:12.837Z,23.13
2016-05-26T06:41:12.699Z,23.18
2016-05-26T06:42:12.858Z,23.43
2016-05-26T06:43:12.861Z,23.47
2016-05-26T06:44:12.879Z,23.66
2016-05-26T06:45:12.944Z,23.48
2016-05-26T06:46:12.885Z,23.56
2016-05-26T06:47:12.903Z,23.55
2016-05-26T06:48:12.781Z,23.56
2016-05-26T06:49:12.939Z,23.81
2016-05-26T06:50:12.926Z,23.88
2016-05-26T06:51:12.773Z,23.92
2016-05-26T06:52:12.979Z,24.01
2016-05-26T06:53:12.950Z,24.01
2016-05-26T06:54:12.952Z,24.16
2016-05-26T06:55:12.971Z,24.16
2016-05-26T06:56:12.973Z,24.11
2016-05-26T06:57:12.992Z,24.11
2016-05-26T06:58:12.839Z,23.98
2016-05-26T06:59:13.028Z,23.77
2016-05-26T07:00:13.016Z,23.68
2016-05-26T07:01:13.019Z,23.61
2016-05-26T07:02:13.037Z,23.5
2016-05-26T07:03:13.274Z,23.4
2016-05-26T07:04:13.042Z,23.4
2016-05-26T07:05:13.092Z,23.44
2016-05-26T07:06:13.079Z,23.36
2016-05-26T07:07:13.082Z,23.27
2016-05-26T07:08:13.099Z,23.15
2016-05-26T07:09:12.946Z,22.85
2016-05-26T07:10:13.168Z,22.98
2016-05-26T07:11:12.982Z,23.24
2016-05-26T07:12:13.126Z,23.39
2016-05-26T07:13:13.144Z,23.74
2016-05-26T07:14:13.132Z,23.93
2016-05-26T07:15:13.149Z,24.01
2016-05-26T07:16:13.184Z,24.28
2016-05-26T07:17:13.014Z,24.65
2016-05-26T07:18:13.033Z,24.66
2016-05-26T07:19:13.177Z,24.88
2016-05-26T07:20:13.226Z,24.78
2016-05-26T07:21:13.213Z,24.98
2016-05-26T07:22:13.231Z,24.99
2016-05-26T07:23:13.218Z,24.98
2016-05-26T07:24:13.253Z,24.96
2016-05-26T07:25:13.255Z,25.07
2016-05-26T07:26:13.273Z,25.28
2016-05-26T07:27:13.276Z,25.28
2016-05-26T07:28:13.294Z,25.18
2016-05-26T07:29:13.297Z,25.1
2016-05-26T07:30:13.314Z,25.13
2016-05-26T07:31:13.146Z,25.5
2016-05-26T07:32:13.305Z,25.47
2016-05-26T07:33:14.167Z,25.26
2016-05-26T07:34:13.341Z,25.28
2016-05-26T07:35:13.328Z,25.4
2016-05-26T07:36:13.190Z,25.66
2016-05-26T07:37:13.364Z,25.8
2016-05-26T07:38:13.408Z,25.84
2016-05-26T07:39:13.278Z,25.95
2016-05-26T07:40:13.463Z,25.93
2016-05-26T07:41:13.537Z,26.16
2016-05-26T07:42:13.540Z,26.34
2016-05-26T07:43:13.536Z,26.44
2016-05-26T07:44:13.422Z,26.45
2016-05-26T07:45:13.590Z,26.68
2016-05-26T07:46:13.477Z,26.95
2016-05-26T07:47:13.626Z,26.74
2016-05-26T07:48:13.866Z,26.7
2016-05-26T07:49:13.654Z,26.84
2016-05-26T07:50:13.660Z,26.99
2016-05-26T07:51:13.666Z,26.85
2016-05-26T07:52:13.686Z,26.96
2016-05-26T07:53:13.706Z,26.92
2016-05-26T07:54:13.709Z,26.85
2016-05-26T07:55:13.558Z,26.84
2016-05-26T07:56:13.734Z,26.8
2016-05-26T07:57:13.737Z,26.89
2016-05-26T07:58:13.754Z,26.93
2016-05-26T07:59:13.758Z,27.15
2016-05-26T08:00:13.777Z,27.3
2016-05-26T08:01:13.795Z,27.11
2016-05-26T08:02:13.642Z,27.21
2016-05-26T08:03:13.972Z,27.37
2016-05-26T08:04:13.819Z,27.29
2016-05-26T08:05:13.838Z,27.03
2016-05-26T08:06:13.685Z,26.95
2016-05-26T08:07:13.890Z,26.95
2016-05-26T08:08:13.860Z,27.15
2016-05-26T08:09:13.708Z,27.29
2016-05-26T08:10:13.867Z,27.52
2016-05-26T08:11:13.729Z,27.64
2016-05-26T08:12:13.888Z,27.67
2016-05-26T08:13:13.921Z,27.58
2016-05-26T08:14:13.924Z,27.49
2016-05-26T08:15:13.927Z,27.37
2016-05-26T08:16:13.930Z,27.42
2016-05-26T08:17:13.948Z,27.58
2016-05-26T08:18:13.966Z,27.47
2016-05-26T08:19:13.970Z,27.45
2016-05-26T08:20:13.987Z,27.49
2016-05-26T08:21:14.006Z,27.55
2016-05-26T08:22:14.008Z,27.75
2016-05-26T08:23:14.026Z,27.74
2016-05-26T08:24:14.029Z,27.9
2016-05-26T08:25:13.875Z,27.98
2016-05-26T08:26:14.081Z,27.89
2016-05-26T08:27:13.897Z,27.7
2016-05-26T08:28:14.055Z,27.64
2016-05-26T08:29:13.917Z,27.7
2016-05-26T08:30:14.077Z,27.74
2016-05-26T08:31:14.094Z,27.73
2016-05-26T08:32:16.410Z,27.82
2016-05-26T08:33:13.961Z,27.73
2016-05-26T08:34:14.118Z,27.73
2016-05-26T08:35:14.137Z,28.1
2016-05-26T08:36:14.186Z,28.17
2016-05-26T08:37:16.502Z,28.17
2016-05-26T08:38:14.286Z,28.23
2016-05-26T08:39:14.180Z,28.29
2016-05-26T08:40:14.181Z,28.12
2016-05-26T08:41:14.060Z,27.93
2016-05-26T08:42:14.219Z,27.65
2016-05-26T08:43:14.237Z,27.32
2016-05-26T08:44:14.224Z,27
2016-05-26T08:45:14.242Z,26.7
2016-05-26T08:46:14.245Z,26.58
2016-05-26T08:47:14.263Z,26.21
2016-05-26T08:48:14.266Z,25.85
2016-05-26T08:49:14.268Z,25.5
2016-05-26T08:50:14.131Z,24.95
2016-05-26T08:51:14.165Z,24.5
2016-05-26T08:52:14.308Z,23.81
2016-05-26T08:53:14.311Z,23.37
2016-05-26T08:54:14.313Z,22.83
2016-05-26T08:55:14.331Z,22.57
2016-05-26T08:56:14.350Z,22.25
2016-05-26T08:57:14.868Z,22.14
2016-05-26T08:58:14.370Z,22.14
2016-05-26T08:59:14.358Z,22.18
2016-05-26T09:00:14.408Z,22.32
2016-05-26T09:01:14.410Z,22.39
2016-05-26T09:02:14.241Z,22.62
2016-05-26T09:03:14.400Z,22.6
2016-05-26T09:04:14.261Z,22.8
2016-05-26T09:05:14.436Z,22.85
2016-05-26T09:06:14.424Z,22.81
2016-05-26T09:07:14.285Z,22.62
2016-05-26T09:08:14.288Z,22.33
2016-05-26T09:09:14.463Z,22.11
2016-05-26T09:10:14.465Z,21.85
2016-05-26T09:11:17.437Z,21.67
2016-05-26T09:12:14.471Z,21.7
2016-05-26T09:13:14.489Z,21.7
2016-05-26T09:14:14.492Z,21.93
2016-05-26T09:15:14.182Z,21.96
2016-05-26T09:16:14.404Z,22.04
2016-05-26T09:17:14.515Z,22.07
2016-05-26T09:18:15.799Z,22.07
2016-05-26T09:19:14.506Z,22.11
2016-05-26T09:20:14.523Z,22.22
2016-05-26T09:21:14.526Z,22.14
2016-05-26T09:22:14.545Z,22.15
2016-05-26T09:23:14.392Z,22.26
2016-05-26T09:24:14.582Z,22.32
2016-05-26T09:25:14.567Z,22.48
2016-05-26T09:26:14.571Z,22.44
2016-05-26T09:27:14.573Z,22.53
2016-05-26T09:28:14.576Z,22.43
2016-05-26T09:29:14.579Z,22.35
2016-05-26T09:30:14.442Z,22.13
2016-05-26T09:31:14.616Z,22.07
2016-05-26T09:32:14.619Z,21.99
2016-05-26T09:33:14.872Z,21.98
2016-05-26T09:34:14.764Z,22
2016-05-26T09:35:14.627Z,22.08
2016-05-26T09:36:14.676Z,22.29
2016-05-26T09:37:14.475Z,22.29
2016-05-26T09:38:14.478Z,22.44
2016-05-26T09:39:14.653Z,22.54
2016-05-26T09:40:14.655Z,22.59
2016-05-26T09:41:14.658Z,22.51
2016-05-26T09:42:14.677Z,22.63
2016-05-26T09:43:14.679Z,22.7
2016-05-26T09:44:14.682Z,22.69
2016-05-26T09:45:14.685Z,22.76
2016-05-26T09:46:14.547Z,22.75
2016-05-26T09:47:14.690Z,22.73
2016-05-26T09:48:14.552Z,22.72
2016-05-26T09:49:14.571Z,22.73
2016-05-26T09:50:14.714Z,22.76
2016-05-26T09:51:14.748Z,22.94
2016-05-26T09:52:14.734Z,22.96
2016-05-26T09:53:14.738Z,23.15
2016-05-26T09:54:14.740Z,23.12
2016-05-26T09:55:14.743Z,23.09
2016-05-26T09:56:14.589Z,23.31
2016-05-26T09:57:14.608Z,23.32
2016-05-26T09:58:14.782Z,23.31
2016-05-26T09:59:14.770Z,23.46
2016-05-26T10:00:14.772Z,23.46
2016-05-26T10:01:14.634Z,23.54
2016-05-26T10:02:14.792Z,23.59
2016-05-26T10:03:15.342Z,23.56
2016-05-26T10:04:14.814Z,23.58
2016-05-26T10:05:14.833Z,23.51
2016-05-26T10:06:14.850Z,23.47
2016-05-26T10:07:14.666Z,23.28
2016-05-26T10:08:14.841Z,23.1
2016-05-26T10:09:14.671Z,23.1
2016-05-26T10:10:14.846Z,22.99
2016-05-26T10:11:14.880Z,22.87
2016-05-26T10:12:14.852Z,22.78
2016-05-26T10:13:14.869Z,22.7
2016-05-26T10:14:14.872Z,22.76
2016-05-26T10:15:14.735Z,22.81
2016-05-26T10:16:14.721Z,22.99
2016-05-26T10:17:14.723Z,23.1
2016-05-26T10:18:15.743Z,23.21
2016-05-26T10:19:15.401Z,23.46
2016-05-26T10:20:14.904Z,23.59
2016-05-26T10:21:14.922Z,23.61
2016-05-26T10:22:14.909Z,23.76
2016-05-26T10:23:14.771Z,23.76
2016-05-26T10:24:14.931Z,23.71
2016-05-26T10:25:14.933Z,23.59
2016-05-26T10:26:14.951Z,23.51
2016-05-26T10:27:14.939Z,23.58
2016-05-26T10:28:14.973Z,23.59
2016-05-26T10:29:14.959Z,23.59
2016-05-26T10:30:14.978Z,23.62
2016-05-26T10:31:14.886Z,23.46
2016-05-26T10:32:14.967Z,23.41
2016-05-26T10:33:15.064Z,23.39
2016-05-26T10:34:14.986Z,23.39
2016-05-26T10:35:15.003Z,23.46
2016-05-26T10:36:14.975Z,23.46
2016-05-26T10:37:15.008Z,23.37
2016-05-26T10:38:15.012Z,23.39
2016-05-26T10:39:15.030Z,23.4
2016-05-26T10:40:15.033Z,23.48
2016-05-26T10:41:15.052Z,23.56
2016-05-26T10:42:15.054Z,23.63
2016-05-26T10:43:15.041Z,23.74
2016-05-26T10:44:14.902Z,23.81
2016-05-26T10:45:15.062Z,23.76
2016-05-26T10:46:15.113Z,23.83
2016-05-26T10:47:15.068Z,23.78
2016-05-26T10:48:15.727Z,23.73
2016-05-26T10:49:15.604Z,23.65
2016-05-26T10:50:15.091Z,23.55
2016-05-26T10:51:15.125Z,23.41
2016-05-26T10:52:15.113Z,23.37
2016-05-26T10:53:14.802Z,23.41
2016-05-26T10:54:15.134Z,23.4
2016-05-26T10:55:15.120Z,23.41
2016-05-26T10:56:15.170Z,23.47
2016-05-26T10:57:15.141Z,23.46
2016-05-26T10:58:15.144Z,23.41
2016-05-26T10:59:15.193Z,23.39
2016-05-26T11:00:15.150Z,23.37
2016-05-26T11:01:15.167Z,23.54
2016-05-26T11:02:15.170Z,23.47
2016-05-26T11:03:15.033Z,23.43
2016-05-26T11:04:15.206Z,23.4
2016-05-26T11:05:15.178Z,23.36
2016-05-26T11:06:15.197Z,23.25
2016-05-26T11:07:15.200Z,23.34
2016-05-26T11:08:15.202Z,23.37
2016-05-26T11:09:15.064Z,23.51
2016-05-26T11:10:15.239Z,23.59
2016-05-26T11:11:15.225Z,23.95
2016-05-26T11:12:15.244Z,24.17
2016-05-26T11:13:15.247Z,24.32
2016-05-26T11:14:15.249Z,24.51
2016-05-26T11:15:15.315Z,24.68
2016-05-26T11:16:15.301Z,24.84
2016-05-26T11:17:15.273Z,24.84
2016-05-26T11:18:15.166Z,24.8
2016-05-26T11:19:15.279Z,24.92
2016-05-26T11:20:15.282Z,24.96
2016-05-26T11:21:15.299Z,25.01
2016-05-26T11:22:15.302Z,25.03
2016-05-26T11:23:15.149Z,24.96
2016-05-26T11:24:15.339Z,24.89
2016-05-26T11:25:15.154Z,24.88
2016-05-26T11:26:15.329Z,24.78
2016-05-26T11:27:15.347Z,24.91
2016-05-26T11:28:15.178Z,24.92
2016-05-26T11:29:15.352Z,24.98
2016-05-26T11:30:15.371Z,24.92
2016-05-26T11:31:15.358Z,24.88
2016-05-26T11:32:15.220Z,24.91
2016-05-26T11:33:15.066Z,24.95
2016-05-26T11:34:15.241Z,24.99
2016-05-26T11:35:15.400Z,24.88
2016-05-26T11:36:15.450Z,24.86
2016-05-26T11:37:15.389Z,24.81
2016-05-26T11:38:15.423Z,24.8
2016-05-26T11:39:15.411Z,24.74
2016-05-26T11:40:15.272Z,24.6
2016-05-26T11:41:15.291Z,24.53
2016-05-26T11:42:15.278Z,24.57
2016-05-26T11:43:15.437Z,24.61
2016-05-26T11:44:15.439Z,24.81
2016-05-26T11:45:15.458Z,24.95
2016-05-26T11:46:15.460Z,25.08
2016-05-26T11:47:15.463Z,25.32
2016-05-26T11:48:16.216Z,25.41
2016-05-26T11:49:15.500Z,25.59
2016-05-26T11:50:15.549Z,25.58
2016-05-26T11:51:15.552Z,25.62
2016-05-26T11:52:15.524Z,25.68
2016-05-26T11:53:15.371Z,25.75
2016-05-26T11:54:15.529Z,25.69
2016-05-26T11:55:15.532Z,25.55
2016-05-26T11:56:15.550Z,25.44
2016-05-26T11:57:15.554Z,25.33
2016-05-26T11:58:15.540Z,25.18
2016-05-26T11:59:15.542Z,25.03
2016-05-26T12:00:15.608Z,24.95
2016-05-26T12:01:15.579Z,24.65
2016-05-26T12:02:15.597Z,24.53
2016-05-26T12:03:15.787Z,24.47
2016-05-26T12:04:15.447Z,24.39
2016-05-26T12:05:15.450Z,24.47
2016-05-26T12:06:15.608Z,24.4
2016-05-26T12:07:15.611Z,24.54
2016-05-26T12:08:15.629Z,24.65
2016-05-26T12:09:15.460Z,24.66
2016-05-26T12:10:15.510Z,24.61
2016-05-26T12:11:15.669Z,24.6
2016-05-26T12:12:15.655Z,24.68
2016-05-26T12:13:15.658Z,24.68
2016-05-26T12:14:15.661Z,24.84
2016-05-26T12:15:15.508Z,24.88
2016-05-26T12:16:15.666Z,25.03
2016-05-26T12:17:15.669Z,25.06
2016-05-26T12:18:15.530Z,25.16
2016-05-26T12:19:15.549Z,25.07
2016-05-26T12:20:15.693Z,24.96
2016-05-26T12:21:15.727Z,24.93
2016-05-26T12:22:15.713Z,24.81
2016-05-26T12:23:15.716Z,24.85
2016-05-26T12:24:15.750Z,24.57
2016-05-26T12:25:15.754Z,24.58
2016-05-26T12:26:15.631Z,24.47
2016-05-26T12:27:15.601Z,24.33
2016-05-26T12:28:15.746Z,24.33
2016-05-26T12:29:15.764Z,24.24
2016-05-26T12:30:15.767Z,24.26
2016-05-26T12:31:15.785Z,24.32
2016-05-26T12:32:15.772Z,24.35
2016-05-26T12:33:15.978Z,24.39
2016-05-26T12:34:16.090Z,24.45
2016-05-26T12:35:15.812Z,24.43
2016-05-26T12:36:15.658Z,24.48
2016-05-26T12:37:15.831Z,24.6
2016-05-26T12:38:15.820Z,24.66
2016-05-26T12:39:15.823Z,24.73
2016-05-26T12:40:15.840Z,24.84
2016-05-26T12:41:15.843Z,24.85
2016-05-26T12:42:15.845Z,24.96
2016-05-26T12:43:15.864Z,24.99
2016-05-26T12:44:15.866Z,24.95
2016-05-26T12:45:15.870Z,24.96
2016-05-26T12:46:15.888Z,24.85
2016-05-26T12:47:15.891Z,24.84
2016-05-26T12:48:16.002Z,24.88
2016-05-26T12:49:15.771Z,24.86
2016-05-26T12:50:15.899Z,25.01
2016-05-26T12:51:15.932Z,24.98
2016-05-26T12:52:15.763Z,25.18
2016-05-26T12:53:15.922Z,25.16
2016-05-26T12:54:15.941Z,25.21
2016-05-26T12:55:15.943Z,25.14
2016-05-26T12:56:15.993Z,25.14